sensor_id;sensor_type;location;lat;lon;timestamp;pressure;altitude;pressure_sealevel;temperature;humidity
8637;BME280;4356;49.068;8.658;2023-06-04T00:01:07;99889.84;;;25.98;34.26
8637;BME280;4356;49.068;8.658;2023-06-04T00:03:34;99893.69;;;25.97;34.32
8637;BME280;4356;49.068;8.658;2023-06-04T00:05:59;99889.56;;;25.94;34.54
8637;BME280;4356;49.068;8.658;2023-06-04T00:08:24;99897.81;;;25.94;34.52
8637;BME280;4356;49.068;8.658;2023-06-04T00:10:50;99895.59;;;25.91;34.49
8637;BME280;4356;49.068;8.658;2023-06-04T00:13:15;99888.44;;;25.90;34.52
8637;BME280;4356;49.068;8.658;2023-06-04T00:15:41;99897.53;;;25.91;34.62
8637;BME280;4356;49.068;8.658;2023-06-04T00:18:06;99896.97;;;25.89;34.26
8637;BME280;4356;49.068;8.658;2023-06-04T00:20:32;99895.31;;;25.88;34.28
8637;BME280;4356;49.068;8.658;2023-06-04T00:22:57;99895.59;;;25.86;34.57
8637;BME280;4356;49.068;8.658;2023-06-04T00:25:23;99890.34;;;25.85;34.54
8637;BME280;4356;49.068;8.658;2023-06-04T00:27:48;99884.00;;;25.79;34.31
8637;BME280;4356;49.068;8.658;2023-06-04T00:30:14;99883.16;;;25.79;34.12
8637;BME280;4356;49.068;8.658;2023-06-04T00:32:40;99890.59;;;25.78;34.57
8637;BME280;4356;49.068;8.658;2023-06-04T00:35:06;99893.34;;;25.78;34.44
8637;BME280;4356;49.068;8.658;2023-06-04T00:37:31;99891.69;;;25.77;34.46
8637;BME280;4356;49.068;8.658;2023-06-04T00:39:57;99889.50;;;25.74;34.59
8637;BME280;4356;49.068;8.658;2023-06-04T00:42:22;99887.25;;;25.71;34.49
8637;BME280;4356;49.068;8.658;2023-06-04T00:44:48;99892.78;;;25.71;34.61
8637;BME280;4356;49.068;8.658;2023-06-04T00:47:15;99894.72;;;25.71;34.50
8637;BME280;4356;49.068;8.658;2023-06-04T00:49:40;99900.22;;;25.71;34.31
8637;BME280;4356;49.068;8.658;2023-06-04T00:52:08;99897.72;;;25.69;34.25
8637;BME280;4356;49.068;8.658;2023-06-04T00:54:34;99895.78;;;25.65;34.28
8637;BME280;4356;49.068;8.658;2023-06-04T00:57:00;99901.28;;;25.65;34.18
8637;BME280;4356;49.068;8.658;2023-06-04T00:59:26;99901.56;;;25.63;34.35
8637;BME280;4356;49.068;8.658;2023-06-04T01:01:57;99890.81;;;25.62;34.33
8637;BME280;4356;49.068;8.658;2023-06-04T01:04:29;99895.22;;;25.58;34.27
8637;BME280;4356;49.068;8.658;2023-06-04T01:06:57;99904.31;;;25.58;34.17
8637;BME280;4356;49.068;8.658;2023-06-04T01:09:26;99902.63;;;25.57;34.21
8637;BME280;4356;49.068;8.658;2023-06-04T01:11:52;99910.88;;;25.57;34.23
8637;BME280;4356;49.068;8.658;2023-06-04T01:14:18;99911.44;;;25.54;34.30
8637;BME280;4356;49.068;8.658;2023-06-04T01:16:49;99899.56;;;25.49;34.22
8637;BME280;4356;49.068;8.658;2023-06-04T01:22:06;99921.03;;;25.52;34.41
8637;BME280;4356;49.068;8.658;2023-06-04T01:24:34;99918.81;;;25.49;34.13
8637;BME280;4356;49.068;8.658;2023-06-04T01:27:05;99917.44;;;25.46;34.23
8637;BME280;4356;49.068;8.658;2023-06-04T01:29:31;99917.69;;;25.44;34.22
8637;BME280;4356;49.068;8.658;2023-06-04T01:31:58;99916.88;;;25.44;34.29
8637;BME280;4356;49.068;8.658;2023-06-04T01:34:24;99922.63;;;25.42;34.15
8637;BME280;4356;49.068;8.658;2023-06-04T01:36:49;99916.84;;;25.39;34.09
8637;BME280;4356;49.068;8.658;2023-06-04T01:39:16;99915.75;;;25.40;34.30
8637;BME280;4356;49.068;8.658;2023-06-04T01:41:42;99924.03;;;25.40;34.21
8637;BME280;4356;49.068;8.658;2023-06-04T01:44:07;99926.50;;;25.41;33.92
8637;BME280;4356;49.068;8.658;2023-06-04T01:46:32;99928.69;;;25.39;34.13
8637;BME280;4356;49.068;8.658;2023-06-04T01:48:58;99924.50;;;25.37;34.38
8637;BME280;4356;49.068;8.658;2023-06-04T01:51:23;99924.78;;;25.35;34.13
8637;BME280;4356;49.068;8.658;2023-06-04T01:53:49;99933.03;;;25.35;34.29
8637;BME280;4356;49.068;8.658;2023-06-04T01:56:14;99926.13;;;25.33;34.36
8637;BME280;4356;49.068;8.658;2023-06-04T01:58:39;99930.53;;;25.34;34.41
8637;BME280;4356;49.068;8.658;2023-06-04T02:01:05;99925.59;;;25.31;34.10
8637;BME280;4356;49.068;8.658;2023-06-04T02:03:32;99928.34;;;25.31;34.41
8637;BME280;4356;49.068;8.658;2023-06-04T02:06:05;99921.69;;;25.27;34.32
8637;BME280;4356;49.068;8.658;2023-06-04T02:08:34;99926.94;;;25.28;34.22
8637;BME280;4356;49.068;8.658;2023-06-04T02:11:00;99914.53;;;25.26;34.35
8637;BME280;4356;49.068;8.658;2023-06-04T02:13:25;99923.88;;;25.25;34.36
8637;BME280;4356;49.068;8.658;2023-06-04T02:15:51;99922.22;;;25.24;34.09
8637;BME280;4356;49.068;8.658;2023-06-04T02:18:20;99918.94;;;25.22;34.59
8637;BME280;4356;49.068;8.658;2023-06-04T02:20:50;99929.66;;;25.23;34.26
8637;BME280;4356;49.068;8.658;2023-06-04T02:23:17;99918.94;;;25.22;34.31
8637;BME280;4356;49.068;8.658;2023-06-04T02:25:43;99917.53;;;25.19;34.13
8637;BME280;4356;49.068;8.658;2023-06-04T02:28:13;99924.09;;;25.18;34.04
8637;BME280;4356;49.068;8.658;2023-06-04T02:30:38;99921.63;;;25.17;34.23
8637;BME280;4356;49.068;8.658;2023-06-04T02:33:04;99915.03;;;25.18;34.48
8637;BME280;4356;49.068;8.658;2023-06-04T02:35:32;99919.97;;;25.16;34.09
8637;BME280;4356;49.068;8.658;2023-06-04T02:37:57;99916.66;;;25.14;34.14
8637;BME280;4356;49.068;8.658;2023-06-04T02:40:26;99920.75;;;25.11;34.48
8637;BME280;4356;49.068;8.658;2023-06-04T02:42:53;99915.22;;;25.06;34.53
8637;BME280;4356;49.068;8.658;2023-06-04T02:45:18;99931.75;;;25.11;34.16
8637;BME280;4356;49.068;8.658;2023-06-04T02:47:44;99928.44;;;25.09;34.26
8637;BME280;4356;49.068;8.658;2023-06-04T02:50:09;99923.47;;;25.06;34.08
8637;BME280;4356;49.068;8.658;2023-06-04T02:52:35;99929.81;;;25.07;34.13
8637;BME280;4356;49.068;8.658;2023-06-04T02:55:03;99926.78;;;25.03;34.22
8637;BME280;4356;49.068;8.658;2023-06-04T02:57:29;99930.09;;;25.05;34.01
8637;BME280;4356;49.068;8.658;2023-06-04T02:59:55;99929.78;;;25.02;34.36
8637;BME280;4356;49.068;8.658;2023-06-04T03:02:21;99925.38;;;25.01;34.21
8637;BME280;4356;49.068;8.658;2023-06-04T03:04:46;99922.06;;;24.99;34.35
8637;BME280;4356;49.068;8.658;2023-06-04T03:07:16;99928.91;;;24.96;34.28
8637;BME280;4356;49.068;8.658;2023-06-04T03:09:46;99923.66;;;24.95;34.14
8637;BME280;4356;49.068;8.658;2023-06-04T03:12:12;99937.16;;;24.96;34.39
8637;BME280;4356;49.068;8.658;2023-06-04T03:14:38;99941.84;;;24.96;34.43
8637;BME280;4356;49.068;8.658;2023-06-04T03:17:04;99944.00;;;24.94;34.29
8637;BME280;4356;49.068;8.658;2023-06-04T03:19:40;99947.28;;;24.91;34.36
8637;BME280;4356;49.068;8.658;2023-06-04T03:22:06;99948.94;;;24.92;34.48
8637;BME280;4356;49.068;8.658;2023-06-04T03:24:37;99947.56;;;24.89;34.54
8637;BME280;4356;49.068;8.658;2023-06-04T03:27:03;99954.13;;;24.88;34.41
8637;BME280;4356;49.068;8.658;2023-06-04T03:29:29;99956.06;;;24.88;34.60
8637;BME280;4356;49.068;8.658;2023-06-04T03:31:56;99955.47;;;24.86;34.51
8637;BME280;4356;49.068;8.658;2023-06-04T03:34:21;99956.59;;;24.85;34.33
8637;BME280;4356;49.068;8.658;2023-06-04T03:36:50;99950.78;;;24.81;34.52
8637;BME280;4356;49.068;8.658;2023-06-04T03:39:16;99945.25;;;24.76;34.42
8637;BME280;4356;49.068;8.658;2023-06-04T03:41:43;99955.44;;;24.81;34.33
8637;BME280;4356;49.068;8.658;2023-06-04T03:44:08;99947.72;;;24.78;34.36
8637;BME280;4356;49.068;8.658;2023-06-04T03:46:34;99954.88;;;24.79;34.58
8637;BME280;4356;49.068;8.658;2023-06-04T03:49:00;99954.31;;;24.77;34.46
8637;BME280;4356;49.068;8.658;2023-06-04T03:51:26;99950.44;;;24.73;34.51
8637;BME280;4356;49.068;8.658;2023-06-04T03:53:51;99948.78;;;24.72;34.54
8637;BME280;4356;49.068;8.658;2023-06-04T03:56:17;99960.59;;;24.72;34.75
8637;BME280;4356;49.068;8.658;2023-06-04T03:58:43;99963.34;;;24.72;34.61
8637;BME280;4356;49.068;8.658;2023-06-04T04:01:08;99961.91;;;24.70;34.69
8637;BME280;4356;49.068;8.658;2023-06-04T04:03:36;99965.75;;;24.69;34.37
8637;BME280;4356;49.068;8.658;2023-06-04T04:06:01;99968.78;;;24.67;34.59
8637;BME280;4356;49.068;8.658;2023-06-04T04:08:26;99966.84;;;24.68;34.69
8637;BME280;4356;49.068;8.658;2023-06-04T04:10:59;99969.28;;;24.64;34.59
8637;BME280;4356;49.068;8.658;2023-06-04T04:13:24;99982.22;;;24.64;34.54
8637;BME280;4356;49.068;8.658;2023-06-04T04:15:50;99975.88;;;24.63;34.61
8637;BME280;4356;49.068;8.658;2023-06-04T04:18:19;99972.81;;;24.60;34.56
8637;BME280;4356;49.068;8.658;2023-06-04T04:20:48;99978.31;;;24.60;34.49
8637;BME280;4356;49.068;8.658;2023-06-04T04:23:13;99974.47;;;24.61;34.45
8637;BME280;4356;49.068;8.658;2023-06-04T04:25:39;99979.97;;;24.61;34.63
8637;BME280;4356;49.068;8.658;2023-06-04T04:28:05;99978.59;;;24.58;34.57
8637;BME280;4356;49.068;8.658;2023-06-04T04:30:34;99976.91;;;24.57;34.70
8637;BME280;4356;49.068;8.658;2023-06-04T04:33:01;99979.91;;;24.56;34.68
8637;BME280;4356;49.068;8.658;2023-06-04T04:35:26;99982.09;;;24.54;34.58
8637;BME280;4356;49.068;8.658;2023-06-04T04:37:51;99977.97;;;24.51;34.55
8637;BME280;4356;49.068;8.658;2023-06-04T04:40:17;99981.28;;;24.53;34.64
8637;BME280;4356;49.068;8.658;2023-06-04T04:42:43;99981.78;;;24.50;34.74
8637;BME280;4356;49.068;8.658;2023-06-04T04:45:09;99991.44;;;24.53;34.58
8637;BME280;4356;49.068;8.658;2023-06-04T04:47:34;99982.63;;;24.51;34.92
8637;BME280;4356;49.068;8.658;2023-06-04T04:50:00;99984.25;;;24.52;34.79
8637;BME280;4356;49.068;8.658;2023-06-04T04:52:25;99987.53;;;24.48;34.63
8637;BME280;4356;49.068;8.658;2023-06-04T04:54:50;99989.19;;;24.49;34.53
8637;BME280;4356;49.068;8.658;2023-06-04T04:57:20;99997.19;;;24.51;34.50
8637;BME280;4356;49.068;8.658;2023-06-04T04:59:45;99981.22;;;24.48;34.61
8637;BME280;4356;49.068;8.658;2023-06-04T05:02:11;99988.66;;;24.48;34.76
8637;BME280;4356;49.068;8.658;2023-06-04T05:04:36;99985.38;;;24.51;34.83
8637;BME280;4356;49.068;8.658;2023-06-04T05:07:02;99975.72;;;24.48;34.67
8637;BME280;4356;49.068;8.658;2023-06-04T05:09:28;99985.63;;;24.49;34.68
8637;BME280;4356;49.068;8.658;2023-06-04T05:11:53;99979.00;;;24.45;34.71
8637;BME280;4356;49.068;8.658;2023-06-04T05:14:19;99986.97;;;24.46;34.64
8637;BME280;4356;49.068;8.658;2023-06-04T05:16:44;99992.47;;;24.46;34.75
8637;BME280;4356;49.068;8.658;2023-06-04T05:19:10;99994.13;;;24.48;34.74
8637;BME280;4356;49.068;8.658;2023-06-04T05:21:36;100002.13;;;24.49;34.60
8637;BME280;4356;49.068;8.658;2023-06-04T05:24:02;100000.13;;;24.44;34.58
8637;BME280;4356;49.068;8.658;2023-06-04T05:26:28;100011.16;;;24.49;34.33
8637;BME280;4356;49.068;8.658;2023-06-04T05:28:54;100008.09;;;24.46;34.70
8637;BME280;4356;49.068;8.658;2023-06-04T05:31:24;100013.38;;;24.48;34.56
8637;BME280;4356;49.068;8.658;2023-06-04T05:33:51;100015.59;;;24.51;34.59
8637;BME280;4356;49.068;8.658;2023-06-04T05:36:17;100020.81;;;24.52;34.59
8637;BME280;4356;49.068;8.658;2023-06-04T05:38:42;100019.75;;;24.53;34.46
8637;BME280;4356;49.068;8.658;2023-06-04T05:41:08;100019.97;;;24.52;34.48
8637;BME280;4356;49.068;8.658;2023-06-04T05:43:33;100021.94;;;24.51;34.34
8637;BME280;4356;49.068;8.658;2023-06-04T05:45:58;100021.94;;;24.51;34.52
8637;BME280;4356;49.068;8.658;2023-06-04T05:48:24;100024.13;;;24.54;34.36
8637;BME280;4356;49.068;8.658;2023-06-04T05:50:50;100025.56;;;24.57;34.38
8637;BME280;4356;49.068;8.658;2023-06-04T05:53:15;100023.03;;;24.55;34.47
8637;BME280;4356;49.068;8.658;2023-06-04T05:55:41;100029.38;;;24.56;34.43
8637;BME280;4356;49.068;8.658;2023-06-04T05:58:06;100025.56;;;24.57;34.44
8637;BME280;4356;49.068;8.658;2023-06-04T06:00:32;100025.28;;;24.58;34.38
8637;BME280;4356;49.068;8.658;2023-06-04T06:02:57;100018.66;;;24.54;34.46
8637;BME280;4356;49.068;8.658;2023-06-04T06:05:26;100035.75;;;24.61;34.62
8637;BME280;4356;49.068;8.658;2023-06-04T06:07:51;100030.53;;;24.60;34.49
8637;BME280;4356;49.068;8.658;2023-06-04T06:10:16;100042.66;;;24.64;34.37
8637;BME280;4356;49.068;8.658;2023-06-04T06:12:42;100035.50;;;24.63;34.40
8637;BME280;4356;49.068;8.658;2023-06-04T06:15:08;100036.06;;;24.65;34.41
8637;BME280;4356;49.068;8.658;2023-06-04T06:17:33;100042.13;;;24.67;34.27
8637;BME280;4356;49.068;8.658;2023-06-04T06:19:59;100037.47;;;24.67;34.32
8637;BME280;4356;49.068;8.658;2023-06-04T06:22:24;100041.88;;;24.68;34.15
8637;BME280;4356;49.068;8.658;2023-06-04T06:24:50;100043.06;;;24.72;34.13
8637;BME280;4356;49.068;8.658;2023-06-04T06:27:16;100045.53;;;24.74;34.14
8637;BME280;4356;49.068;8.658;2023-06-04T06:29:43;100048.31;;;24.79;34.24
8637;BME280;4356;49.068;8.658;2023-06-04T06:32:12;100047.00;;;24.81;34.12
8637;BME280;4356;49.068;8.658;2023-06-04T06:34:38;100045.34;;;24.80;34.04
8637;BME280;4356;49.068;8.658;2023-06-04T06:37:06;100054.72;;;24.84;34.03
8637;BME280;4356;49.068;8.658;2023-06-04T06:39:31;100050.31;;;24.83;34.04
8637;BME280;4356;49.068;8.658;2023-06-04T06:41:57;100053.38;;;24.87;34.00
8637;BME280;4356;49.068;8.658;2023-06-04T06:44:23;100062.75;;;24.91;33.92
8637;BME280;4356;49.068;8.658;2023-06-04T06:46:48;100043.22;;;24.87;34.01
8637;BME280;4356;49.068;8.658;2023-06-04T06:49:14;100057.84;;;24.93;33.96
8637;BME280;4356;49.068;8.658;2023-06-04T06:51:40;100053.97;;;24.94;33.88
8637;BME280;4356;49.068;8.658;2023-06-04T06:54:05;100059.53;;;24.99;33.64
8637;BME280;4356;49.068;8.658;2023-06-04T06:56:32;100055.69;;;25.00;33.73
8637;BME280;4356;49.068;8.658;2023-06-04T06:58:57;100040.81;;;24.96;33.82
8637;BME280;4356;49.068;8.658;2023-06-04T07:01:22;100061.81;;;25.07;33.60
8637;BME280;4356;49.068;8.658;2023-06-04T07:03:48;100055.22;;;25.08;33.54
8637;BME280;4356;49.068;8.658;2023-06-04T07:06:13;100049.44;;;25.09;33.67
8637;BME280;4356;49.068;8.658;2023-06-04T07:08:39;100049.78;;;25.13;33.70
8637;BME280;4356;49.068;8.658;2023-06-04T07:11:04;100057.50;;;25.16;33.51
8637;BME280;4356;49.068;8.658;2023-06-04T07:13:30;100052.25;;;25.14;33.47
8637;BME280;4356;49.068;8.658;2023-06-04T07:15:58;100054.78;;;25.21;33.58
8637;BME280;4356;49.068;8.658;2023-06-04T07:18:24;100050.13;;;25.21;33.57
8637;BME280;4356;49.068;8.658;2023-06-04T07:20:49;100055.91;;;25.25;33.43
8637;BME280;4356;49.068;8.658;2023-06-04T07:23:16;100046.56;;;25.26;33.42
8637;BME280;4356;49.068;8.658;2023-06-04T07:25:41;100064.22;;;25.30;33.22
8637;BME280;4356;49.068;8.658;2023-06-04T07:28:06;100060.38;;;25.31;33.60
8637;BME280;4356;49.068;8.658;2023-06-04T07:30:32;100060.91;;;25.33;33.27
8637;BME280;4356;49.068;8.658;2023-06-04T07:33:00;100065.34;;;25.34;33.51
8637;BME280;4356;49.068;8.658;2023-06-04T07:35:26;100062.66;;;25.39;33.42
8637;BME280;4356;49.068;8.658;2023-06-04T07:37:51;100062.94;;;25.37;33.22
8637;BME280;4356;49.068;8.658;2023-06-04T07:40:17;100069.31;;;25.43;33.40
8637;BME280;4356;49.068;8.658;2023-06-04T07:42:42;100065.75;;;25.48;33.06
8637;BME280;4356;49.068;8.658;2023-06-04T07:45:09;100064.41;;;25.50;33.07
8637;BME280;4356;49.068;8.658;2023-06-04T07:47:37;100068.00;;;25.51;32.92
8637;BME280;4356;49.068;8.658;2023-06-04T07:50:03;100050.34;;;25.47;33.25
8637;BME280;4356;49.068;8.658;2023-06-04T07:52:29;100062.50;;;25.56;33.29
8637;BME280;4356;49.068;8.658;2023-06-04T07:54:55;100058.16;;;25.60;33.00
8637;BME280;4356;49.068;8.658;2023-06-04T07:57:20;100064.47;;;25.60;33.03
8637;BME280;4356;49.068;8.658;2023-06-04T07:59:46;100059.00;;;25.65;32.74
8637;BME280;4356;49.068;8.658;2023-06-04T08:02:11;100066.72;;;25.68;33.04
8637;BME280;4356;49.068;8.658;2023-06-04T08:04:36;100064.53;;;25.70;33.11
8637;BME280;4356;49.068;8.658;2023-06-04T08:07:02;100063.44;;;25.71;32.82
8637;BME280;4356;49.068;8.658;2023-06-04T08:09:27;100054.09;;;25.72;32.88
8637;BME280;4356;49.068;8.658;2023-06-04T08:11:53;100057.44;;;25.79;32.69
8637;BME280;4356;49.068;8.658;2023-06-04T08:14:18;100051.63;;;25.76;32.98
8637;BME280;4356;49.068;8.658;2023-06-04T08:16:47;100047.25;;;25.80;32.78
8637;BME280;4356;49.068;8.658;2023-06-04T08:19:12;100050.03;;;25.85;32.93
8637;BME280;4356;49.068;8.658;2023-06-04T08:21:38;100052.25;;;25.88;32.91
8637;BME280;4356;49.068;8.658;2023-06-04T08:24:05;100052.53;;;25.91;32.86
8637;BME280;4356;49.068;8.658;2023-06-04T08:26:31;100047.03;;;25.91;32.72
8637;BME280;4356;49.068;8.658;2023-06-04T08:28:57;100046.25;;;25.96;32.91
8637;BME280;4356;49.068;8.658;2023-06-04T08:31:22;100045.44;;;26.00;32.63
8637;BME280;4356;49.068;8.658;2023-06-04T08:33:48;100038.28;;;25.99;32.49
8637;BME280;4356;49.068;8.658;2023-06-04T08:36:14;100043.00;;;26.04;32.56
8637;BME280;4356;49.068;8.658;2023-06-04T08:38:41;100054.31;;;26.07;32.63
8637;BME280;4356;49.068;8.658;2023-06-04T08:41:29;100044.13;;;26.08;32.51
8637;BME280;4356;49.068;8.658;2023-06-04T08:43:57;100060.41;;;26.14;32.29
8637;BME280;4356;49.068;8.658;2023-06-04T08:46:23;100065.38;;;26.17;32.50
8637;BME280;4356;49.068;8.658;2023-06-04T08:48:50;100066.53;;;26.21;32.36
8637;BME280;4356;49.068;8.658;2023-06-04T08:51:16;100061.81;;;26.22;32.69
8637;BME280;4356;49.068;8.658;2023-06-04T08:53:42;100064.06;;;26.25;32.41
8637;BME280;4356;49.068;8.658;2023-06-04T08:56:08;100060.47;;;26.29;32.39
8637;BME280;4356;49.068;8.658;2023-06-04T08:58:38;100059.41;;;26.30;32.36
8637;BME280;4356;49.068;8.658;2023-06-04T09:01:08;100067.09;;;26.33;32.28
8637;BME280;4356;49.068;8.658;2023-06-04T09:03:36;100064.63;;;26.37;32.24
8637;BME280;4356;49.068;8.658;2023-06-04T09:06:03;100063.28;;;26.39;32.35
8637;BME280;4356;49.068;8.658;2023-06-04T09:08:31;100064.94;;;26.45;32.45
8637;BME280;4356;49.068;8.658;2023-06-04T09:11:00;100064.41;;;26.49;32.26
8637;BME280;4356;49.068;8.658;2023-06-04T09:13:31;100063.03;;;26.51;32.12
8637;BME280;4356;49.068;8.658;2023-06-04T09:16:04;100057.00;;;26.54;32.34
8637;BME280;4356;49.068;8.658;2023-06-04T09:18:31;100068.31;;;26.58;32.06
8637;BME280;4356;49.068;8.658;2023-06-04T09:21:04;100069.41;;;26.62;32.37
8637;BME280;4356;49.068;8.658;2023-06-04T09:23:31;100063.34;;;26.65;31.83
8637;BME280;4356;49.068;8.658;2023-06-04T09:26:06;100063.91;;;26.67;32.15
8637;BME280;4356;49.068;8.658;2023-06-04T09:28:32;100061.16;;;26.67;31.82
8637;BME280;4356;49.068;8.658;2023-06-04T09:30:58;100064.50;;;26.74;31.84
8637;BME280;4356;49.068;8.658;2023-06-04T09:33:23;100060.66;;;26.75;32.15
8637;BME280;4356;49.068;8.658;2023-06-04T09:35:54;100067.28;;;26.79;31.83
8637;BME280;4356;49.068;8.658;2023-06-04T09:38:20;100066.16;;;26.80;32.05
8637;BME280;4356;49.068;8.658;2023-06-04T09:40:46;100056.25;;;26.84;31.79
8637;BME280;4356;49.068;8.658;2023-06-04T09:43:21;100053.22;;;26.85;31.85
8637;BME280;4356;49.068;8.658;2023-06-04T09:45:47;100058.47;;;26.92;31.87
8637;BME280;4356;49.068;8.658;2023-06-04T09:48:19;100057.38;;;26.93;31.76
8637;BME280;4356;49.068;8.658;2023-06-04T09:50:46;100050.78;;;26.94;31.67
8637;BME280;4356;49.068;8.658;2023-06-04T09:53:21;100054.09;;;27.01;31.55
8637;BME280;4356;49.068;8.658;2023-06-04T09:55:58;100047.44;;;27.02;31.70
8637;BME280;4356;49.068;8.658;2023-06-04T09:58:28;100046.38;;;27.03;31.49
8637;BME280;4356;49.068;8.658;2023-06-04T10:00:57;100056.03;;;27.10;31.34
8637;BME280;4356;49.068;8.658;2023-06-04T10:03:24;100049.41;;;27.11;31.59
8637;BME280;4356;49.068;8.658;2023-06-04T10:05:52;100049.41;;;27.11;31.38
8637;BME280;4356;49.068;8.658;2023-06-04T10:08:21;100052.16;;;27.16;31.30
8637;BME280;4356;49.068;8.658;2023-06-04T10:10:53;100029.53;;;27.09;31.38
8637;BME280;4356;49.068;8.658;2023-06-04T10:13:21;100059.06;;;27.24;31.11
8637;BME280;4356;49.068;8.658;2023-06-04T10:15:49;100041.66;;;27.18;31.07
8637;BME280;4356;49.068;8.658;2023-06-04T10:18:15;100052.44;;;27.30;30.81
8637;BME280;4356;49.068;8.658;2023-06-04T10:20:41;100051.34;;;27.31;30.92
8637;BME280;4356;49.068;8.658;2023-06-04T10:23:07;100054.38;;;27.34;31.01
8637;BME280;4356;49.068;8.658;2023-06-04T10:25:34;100046.38;;;27.38;31.05
8637;BME280;4356;49.068;8.658;2023-06-04T10:28:01;100045.28;;;27.39;30.83
8637;BME280;4356;49.068;8.658;2023-06-04T10:30:27;100055.78;;;27.42;30.95
8637;BME280;4356;49.068;8.658;2023-06-04T10:32:52;100052.44;;;27.45;30.41
8637;BME280;4356;49.068;8.658;2023-06-04T10:35:29;100047.47;;;27.47;30.46
8637;BME280;4356;49.068;8.658;2023-06-04T10:38:12;100040.31;;;27.51;30.65
8637;BME280;4356;49.068;8.658;2023-06-04T10:40:42;100040.84;;;27.53;30.69
8637;BME280;4356;49.068;8.658;2023-06-04T10:43:09;100037.25;;;27.53;30.64
8637;BME280;4356;49.068;8.658;2023-06-04T10:45:35;100038.06;;;27.58;30.66
8637;BME280;4356;49.068;8.658;2023-06-04T10:48:05;100041.69;;;27.59;30.62
8637;BME280;4356;49.068;8.658;2023-06-04T10:50:36;100045.25;;;27.64;30.69
8637;BME280;4356;49.068;8.658;2023-06-04T10:53:12;100043.84;;;27.67;30.62
8637;BME280;4356;49.068;8.658;2023-06-04T10:55:44;100035.56;;;27.67;30.64
8637;BME280;4356;49.068;8.658;2023-06-04T10:58:09;100040.28;;;27.71;30.35
8637;BME280;4356;49.068;8.658;2023-06-04T11:00:39;100033.63;;;27.72;30.46
8637;BME280;4356;49.068;8.658;2023-06-04T11:03:06;100034.19;;;27.74;30.71
8637;BME280;4356;49.068;8.658;2023-06-04T11:05:45;100043.56;;;27.78;30.60
8637;BME280;4356;49.068;8.658;2023-06-04T11:08:11;100036.66;;;27.81;30.42
8637;BME280;4356;49.068;8.658;2023-06-04T11:10:39;100033.34;;;27.84;30.49
8637;BME280;4356;49.068;8.658;2023-06-04T11:13:05;100029.19;;;27.86;30.72
8637;BME280;4356;49.068;8.658;2023-06-04T11:15:44;100028.91;;;27.88;30.45
8637;BME280;4356;49.068;8.658;2023-06-04T11:18:14;100029.16;;;27.91;30.33
8637;BME280;4356;49.068;8.658;2023-06-04T11:20:40;100026.16;;;27.93;30.46
8637;BME280;4356;49.068;8.658;2023-06-04T11:23:07;100034.69;;;27.96;30.21
8637;BME280;4356;49.068;8.658;2023-06-04T11:25:33;100016.75;;;27.94;30.46
8637;BME280;4356;49.068;8.658;2023-06-04T11:28:00;100027.50;;;28.00;30.53
8637;BME280;4356;49.068;8.658;2023-06-04T11:30:27;100027.22;;;28.02;30.41
8637;BME280;4356;49.068;8.658;2023-06-04T11:33:03;100026.66;;;28.05;30.13
8637;BME280;4356;49.068;8.658;2023-06-04T11:35:28;100034.13;;;28.09;30.30
8637;BME280;4356;49.068;8.658;2023-06-04T11:37:55;100027.75;;;28.09;30.27
8637;BME280;4356;49.068;8.658;2023-06-04T11:40:21;100021.94;;;28.10;30.34
8637;BME280;4356;49.068;8.658;2023-06-04T11:42:47;100020.56;;;28.13;30.05
8637;BME280;4356;49.068;8.658;2023-06-04T11:45:14;100031.59;;;28.18;29.90
8637;BME280;4356;49.068;8.658;2023-06-04T11:47:53;100029.91;;;28.22;29.87
8637;BME280;4356;49.068;8.658;2023-06-04T11:50:21;100021.88;;;28.25;30.02
8637;BME280;4356;49.068;8.658;2023-06-04T11:52:48;100026.03;;;28.28;30.08
8637;BME280;4356;49.068;8.658;2023-06-04T11:55:13;100019.09;;;28.30;30.03
8637;BME280;4356;49.068;8.658;2023-06-04T11:57:40;100019.09;;;28.30;30.04
8637;BME280;4356;49.068;8.658;2023-06-04T12:00:09;100016.03;;;28.32;29.94
8637;BME280;4356;49.068;8.658;2023-06-04T12:02:48;100020.72;;;28.36;30.11
8637;BME280;4356;49.068;8.658;2023-06-04T12:05:14;100014.06;;;28.37;30.22
8637;BME280;4356;49.068;8.658;2023-06-04T12:07:40;100022.38;;;28.42;30.18
8637;BME280;4356;49.068;8.658;2023-06-04T12:10:10;100017.63;;;28.43;29.96
8637;BME280;4356;49.068;8.658;2023-06-04T12:12:40;100017.09;;;28.46;29.91
8637;BME280;4356;49.068;8.658;2023-06-04T12:15:09;100007.38;;;28.49;29.95
8637;BME280;4356;49.068;8.658;2023-06-04T12:17:48;100015.38;;;28.50;29.94
8637;BME280;4356;49.068;8.658;2023-06-04T12:20:14;100011.25;;;28.53;29.99
8637;BME280;4356;49.068;8.658;2023-06-04T12:22:46;100012.34;;;28.57;29.98
8637;BME280;4356;49.068;8.658;2023-06-04T12:25:26;99999.88;;;28.59;30.23
8637;BME280;4356;49.068;8.658;2023-06-04T12:27:52;100000.72;;;28.60;30.09
8637;BME280;4356;49.068;8.658;2023-06-04T12:30:18;99998.47;;;28.62;29.83
8637;BME280;4356;49.068;8.658;2023-06-04T12:32:43;100003.19;;;28.66;29.91
8637;BME280;4356;49.068;8.658;2023-06-04T12:35:10;100003.69;;;28.68;29.61
8637;BME280;4356;49.068;8.658;2023-06-04T12:37:35;99989.59;;;28.70;29.63
8637;BME280;4356;49.068;8.658;2023-06-04T12:40:01;100001.16;;;28.72;29.46
8637;BME280;4356;49.068;8.658;2023-06-04T12:42:26;99988.72;;;28.74;29.29
8637;BME280;4356;49.068;8.658;2023-06-04T12:44:53;99993.66;;;28.77;29.64
8637;BME280;4356;49.068;8.658;2023-06-04T12:47:18;100003.34;;;28.80;29.44
8637;BME280;4356;49.068;8.658;2023-06-04T12:49:46;99995.03;;;28.80;29.48
8637;BME280;4356;49.068;8.658;2023-06-04T12:52:11;99984.22;;;28.83;29.24
8637;BME280;4356;49.068;8.658;2023-06-04T12:54:39;99998.00;;;28.88;29.26
8637;BME280;4356;49.068;8.658;2023-06-04T12:57:05;99994.44;;;28.88;29.10
8637;BME280;4356;49.068;8.658;2023-06-04T12:59:30;99992.72;;;28.92;29.45
8637;BME280;4356;49.068;8.658;2023-06-04T13:01:56;99988.56;;;28.94;28.96
8637;BME280;4356;49.068;8.658;2023-06-04T13:04:22;99989.94;;;28.97;29.09
8637;BME280;4356;49.068;8.658;2023-06-04T13:06:49;99982.97;;;28.99;29.27
8637;BME280;4356;49.068;8.658;2023-06-04T13:09:15;99981.88;;;29.00;29.04
8637;BME280;4356;49.068;8.658;2023-06-04T13:11:42;99968.84;;;29.01;29.35
8637;BME280;4356;49.068;8.658;2023-06-04T13:14:09;99982.13;;;29.04;28.89
8637;BME280;4356;49.068;8.658;2023-06-04T13:16:34;99981.00;;;29.05;28.66